Time;durP1;ratioP1;P1;durP2;ratioP2;P2;SDS_P1;SDS_P2;PMS_P1;PMS_P2;Temp;Humidity;BMP_temperature;BMP_pressure;BME280_temperature;BME280_humidity;BME280_pressure;Samples;Min_cycle;Max_cycle;Signal;HPM_P1;HPM_P2
2024/01/05 00:00:06;;;;;;;1.00;0.83;;;;;;;5.51;100.00;95078.50;5132725;27;20499;-53
2024/01/05 00:02:34;;;;;;;1.77;0.73;;;;;;;5.20;100.00;95097.50;5131383;27;20501;-54
2024/01/05 00:05:03;;;;;;;3.17;2.60;;;;;;;5.25;100.00;95084.44;5119396;27;20441;-54
2024/01/05 00:07:32;;;;;;;3.60;1.20;;;;;;;4.85;100.00;95095.97;5131823;27;20434;-54
2024/01/05 00:10:00;;;;;;;5.23;2.30;;;;;;;4.88;100.00;95079.69;5132853;27;20470;-54
2024/01/05 00:12:29;;;;;;;0.90;0.90;;;;;;;4.87;100.00;95093.06;5132349;27;20441;-54
2024/01/05 00:14:58;;;;;;;0.67;0.67;;;;;;;4.76;100.00;95104.44;5132572;27;20950;-54
2024/01/05 00:17:28;;;;;;;0.90;0.90;;;;;;;5.02;100.00;95104.63;5131666;27;20474;-54
2024/01/05 00:19:57;;;;;;;2.47;1.17;;;;;;;4.93;100.00;95074.53;5132032;27;20804;-54
2024/01/05 00:22:26;;;;;;;3.63;0.80;;;;;;;5.20;100.00;95108.03;5131917;27;20443;-53
2024/01/05 00:24:54;;;;;;;1.00;0.67;;;;;;;5.12;100.00;95125.78;5132082;27;20775;-53
2024/01/05 00:27:23;;;;;;;0.80;0.80;;;;;;;4.10;100.00;95139.22;5131580;27;20535;-54
2024/01/05 00:29:51;;;;;;;4.97;1.10;;;;;;;4.05;100.00;95133.88;5132779;27;20472;-54
2024/01/05 00:32:20;;;;;;;1.50;1.40;;;;;;;3.95;100.00;95144.19;5132262;27;20841;-54
2024/01/05 00:34:50;;;;;;;2.10;2.00;;;;;;;3.93;100.00;95143.59;5132320;27;20790;-54
2024/01/05 00:37:19;;;;;;;2.33;1.70;;;;;;;3.70;100.00;95145.22;5132820;27;20429;-54
2024/01/05 00:39:48;;;;;;;1.57;0.60;;;;;;;3.68;100.00;95100.13;5131681;27;20442;-54
2024/01/05 00:42:16;;;;;;;1.27;1.13;;;;;;;4.07;100.00;95140.50;5132394;28;20438;-53
2024/01/05 00:44:45;;;;;;;2.50;0.83;;;;;;;3.94;100.00;95113.72;5132105;28;20447;-54
2024/01/05 00:47:14;;;;;;;1.40;0.80;;;;;;;4.01;100.00;95128.28;5132871;27;20441;-54
2024/01/05 00:49:42;;;;;;;1.70;1.03;;;;;;;4.18;100.00;95150.13;5132055;27;20430;-54
2024/01/05 00:52:13;;;;;;;5.13;0.50;;;;;;;3.80;100.00;95132.34;5131934;27;20894;-54
2024/01/05 00:54:42;;;;;;;1.10;1.00;;;;;;;3.95;100.00;95157.28;5132169;27;20446;-54
2024/01/05 00:57:11;;;;;;;0.60;0.60;;;;;;;4.11;100.00;95159.16;5131727;28;20439;-54
2024/01/05 00:59:40;;;;;;;1.27;0.90;;;;;;;4.01;100.00;95117.00;5131792;27;20471;-54
2024/01/05 01:02:08;;;;;;;0.50;0.50;;;;;;;4.15;100.00;95166.31;5131571;28;20860;-54
2024/01/05 01:04:37;;;;;;;0.63;0.50;;;;;;;3.79;100.00;95096.66;5131467;28;20441;-53
2024/01/05 01:07:06;;;;;;;0.80;0.80;;;;;;;3.66;100.00;95110.03;5131695;28;20529;-53
2024/01/05 01:09:36;;;;;;;0.40;0.30;;;;;;;3.88;100.00;95172.31;5132460;28;20438;-54
2024/01/05 01:12:06;;;;;;;1.27;1.27;;;;;;;3.96;100.00;95180.63;5131475;28;20506;-55
2024/01/05 01:14:35;;;;;;;0.83;0.83;;;;;;;4.10;100.00;95175.94;5131842;28;20466;-55
2024/01/05 01:17:04;;;;;;;0.63;0.60;;;;;;;4.16;100.00;95172.38;5132668;27;20850;-54
2024/01/05 01:19:33;;;;;;;1.47;0.80;;;;;;;4.19;100.00;95171.91;5105345;28;20430;-55
2024/01/05 01:22:01;;;;;;;1.30;1.20;;;;;;;4.18;100.00;95151.94;5132054;27;20454;-54
2024/01/05 01:24:30;;;;;;;1.13;1.13;;;;;;;4.30;100.00;95168.47;5132471;27;20446;-54
2024/01/05 01:27:00;;;;;;;1.53;1.43;;;;;;;4.36;100.00;95175.38;5131309;28;20465;-55
2024/01/05 01:29:29;;;;;;;1.80;1.70;;;;;;;4.33;100.00;95167.97;5131660;28;20435;-55
2024/01/05 01:31:57;;;;;;;0.87;0.87;;;;;;;4.36;100.00;95170.13;5131556;27;20526;-54
2024/01/05 01:34:26;;;;;;;1.60;1.50;;;;;;;4.33;100.00;95170.59;5131744;27;20962;-54
2024/01/05 01:36:55;;;;;;;2.77;0.50;;;;;;;4.40;100.00;95163.41;5118413;27;20434;-54
2024/01/05 01:39:23;;;;;;;0.70;0.70;;;;;;;4.41;100.00;95160.53;5135842;27;20458;-54
2024/01/05 01:41:52;;;;;;;3.27;0.97;;;;;;;4.42;100.00;95169.22;5135495;27;20524;-54
2024/01/05 01:44:22;;;;;;;0.50;0.47;;;;;;;4.31;100.00;95170.84;5136185;27;20759;-54
2024/01/05 01:46:51;;;;;;;13.53;0.97;;;;;;;4.06;100.00;95132.84;5135555;27;20434;-54
2024/01/05 01:49:20;;;;;;;0.50;0.50;;;;;;;4.33;100.00;95179.28;5136036;27;20442;-54
2024/01/05 01:51:51;;;;;;;0.77;0.63;;;;;;;4.17;100.00;95155.63;5134827;27;20515;-54
2024/01/05 01:54:20;;;;;;;0.60;0.60;;;;;;;4.36;100.00;95185.88;5135029;27;20430;-54
2024/01/05 01:56:51;;;;;;;1.13;1.03;;;;;;;3.89;100.00;95126.75;5134941;27;20461;-55
2024/01/05 01:59:20;;;;;;;0.63;0.40;;;;;;;4.31;100.00;95198.91;5135085;27;20527;-54
2024/01/05 02:01:50;;;;;;;0.40;0.40;;;;;;;4.33;100.00;95194.22;5135604;27;20925;-54
2024/01/05 02:04:23;;;;;;;1.00;1.00;;;;;;;4.34;100.00;95193.19;5134874;27;20482;-55
2024/01/05 02:06:52;;;;;;;1.67;1.40;;;;;;;4.06;100.00;95185.28;5135621;27;20438;-55
2024/01/05 02:09:21;;;;;;;2.03;1.60;;;;;;;4.18;100.00;95189.47;5132435;27;20493;-54
2024/01/05 02:11:50;;;;;;;0.93;0.80;;;;;;;4.11;100.00;95175.69;5124614;27;20951;-54
2024/01/05 02:14:19;;;;;;;0.97;0.97;;;;;;;4.25;100.00;95194.59;5135328;27;20488;-54
2024/01/05 02:16:47;;;;;;;0.70;0.63;;;;;;;4.29;100.00;95198.34;5135192;27;20435;-54
2024/01/05 02:19:17;;;;;;;0.67;0.67;;;;;;;4.28;100.00;95194.91;5134405;27;20973;-54
2024/01/05 02:21:50;;;;;;;0.60;0.60;;;;;;;4.16;100.00;95175.00;5135070;27;20438;-54
2024/01/05 02:24:20;;;;;;;0.60;0.60;;;;;;;4.31;100.00;95198.91;5134080;27;21204;-54
2024/01/05 02:26:49;;;;;;;0.40;0.40;;;;;;;4.22;100.00;95193.25;5134738;27;20474;-53
2024/01/05 02:29:21;;;;;;;0.30;0.30;;;;;;;4.30;100.00;95218.31;5108231;27;20438;-55
2024/01/05 02:31:50;;;;;;;0.70;0.30;;;;;;;4.21;100.00;95206.56;5134138;27;20989;-54
2024/01/05 02:34:19;;;;;;;0.57;0.57;;;;;;;4.19;100.00;95213.88;5134177;27;20430;-54
2024/01/05 02:36:49;;;;;;;0.40;0.30;;;;;;;4.13;100.00;95223.47;5134410;27;20452;-54
2024/01/05 02:39:18;;;;;;;0.40;0.30;;;;;;;4.09;100.00;95213.69;5134794;27;20792;-54
2024/01/05 02:41:48;;;;;;;0.50;0.50;;;;;;;4.00;100.00;95218.47;5133956;27;20438;-54
2024/01/05 02:44:16;;;;;;;5.17;0.70;;;;;;;3.46;100.00;95151.53;5133345;27;20438;-54
2024/01/05 02:46:45;;;;;;;0.40;0.40;;;;;;;3.85;100.00;95221.56;5133621;27;20434;-53
2024/01/05 02:49:13;;;;;;;2.27;0.40;;;;;;;3.81;100.00;95194.22;5132704;27;20499;-54
2024/01/05 02:51:42;;;;;;;0.57;0.47;;;;;;;3.84;100.00;95212.09;5132993;27;20470;-54
2024/01/05 02:54:11;;;;;;;1.17;0.60;;;;;;;3.56;100.00;95167.47;5133739;27;20478;-54
2024/01/05 02:56:40;;;;;;;0.50;0.43;;;;;;;3.97;100.00;95226.00;5133841;27;20512;-54
2024/01/05 02:59:11;;;;;;;4.77;0.67;;;;;;;3.97;100.00;95228.63;5134164;27;20934;-54
2024/01/05 03:01:39;;;;;;;0.67;0.60;;;;;;;3.97;100.00;95226.81;5133525;27;20942;-54
2024/01/05 03:04:08;;;;;;;1.30;1.20;;;;;;;3.90;100.00;95233.22;5133328;27;20466;-55
2024/01/05 03:06:37;;;;;;;0.80;0.80;;;;;;;3.93;100.00;95238.78;5107670;27;20439;-54
2024/01/05 03:09:08;;;;;;;0.73;0.73;;;;;;;3.81;100.00;95220.44;5133954;27;20806;-54
2024/01/05 03:11:55;;;;;;;0.50;0.37;;;;;;;3.88;100.00;95230.78;5132069;27;20473;-54
2024/01/05 03:14:25;;;;;;;1.20;0.80;;;;;;;3.89;100.00;95252.56;5132888;27;20448;-54
2024/01/05 03:16:54;;;;;;;1.17;0.30;;;;;;;3.84;100.00;95261.91;5133313;27;20431;-55
2024/01/05 03:19:22;;;;;;;0.93;0.93;;;;;;;3.73;100.00;95247.00;5133378;27;20430;-54
2024/01/05 03:21:51;;;;;;;0.40;0.37;;;;;;;3.87;100.00;95265.94;5133410;27;20462;-55
2024/01/05 03:24:20;;;;;;;1.07;1.07;;;;;;;3.47;100.00;95216.00;5132808;27;20433;-54
2024/01/05 03:26:48;;;;;;;0.93;0.93;;;;;;;3.84;100.00;95272.38;5133381;27;20435;-54
2024/01/05 03:29:17;;;;;;;1.47;1.47;;;;;;;3.51;100.00;95204.03;5119473;27;20534;-55
2024/01/05 03:31:48;;;;;;;0.40;0.30;;;;;;;3.89;100.00;95265.69;5132885;27;20466;-54
2024/01/05 03:34:16;;;;;;;0.77;0.37;;;;;;;3.88;100.00;95261.44;5133296;27;20530;-55
2024/01/05 03:36:45;;;;;;;0.53;0.40;;;;;;;3.86;100.00;95274.81;5132930;27;20525;-54
2024/01/05 03:39:14;;;;;;;0.30;0.20;;;;;;;3.79;100.00;95277.53;5132819;27;20434;-55
2024/01/05 03:41:43;;;;;;;0.50;0.40;;;;;;;3.73;100.00;95273.22;5132174;27;20448;-55
2024/01/05 03:44:11;;;;;;;0.60;0.50;;;;;;;3.76;100.00;95267.50;5133177;27;20970;-55
2024/01/05 03:46:40;;;;;;;1.50;1.40;;;;;;;3.82;100.00;95258.72;5132982;27;20535;-55
2024/01/05 03:49:10;;;;;;;1.13;0.90;;;;;;;3.44;100.00;95213.03;5133518;27;20809;-55
2024/01/05 03:51:39;;;;;;;0.60;0.60;;;;;;;3.03;100.00;95238.25;5132460;27;20528;-55
2024/01/05 03:54:08;;;;;;;3.50;0.80;;;;;;;3.55;100.00;95288.22;5133304;27;20435;-55
2024/01/05 03:56:40;;;;;;;1.17;1.10;;;;;;;3.69;100.00;95274.66;5132859;27;20445;-55
2024/01/05 03:59:09;;;;;;;1.63;0.80;;;;;;;3.44;100.00;95223.53;5133001;27;20495;-55
2024/01/05 04:01:43;;;;;;;2.07;1.33;;;;;;;3.85;100.00;95287.09;5118700;27;20450;-55
2024/01/05 04:04:14;;;;;;;1.43;1.33;;;;;;;3.72;100.00;95302.25;5132914;27;20522;-55
2024/01/05 04:06:44;;;;;;;1.30;1.20;;;;;;;3.74;100.00;95298.38;5132691;27;20439;-54
2024/01/05 04:09:13;;;;;;;0.80;0.70;;;;;;;3.45;100.00;95306.31;5132190;27;20431;-55
2024/01/05 04:11:42;;;;;;;1.80;0.97;;;;;;;3.17;100.00;95315.59;5132868;27;20476;-55
2024/01/05 04:14:10;;;;;;;0.93;0.90;;;;;;;2.82;100.00;95316.47;5132740;27;20495;-54
2024/01/05 04:16:39;;;;;;;1.97;1.77;;;;;;;2.50;100.00;95324.50;5131986;27;20891;-54
2024/01/05 04:19:08;;;;;;;2.30;2.20;;;;;;;2.49;100.00;95335.19;5131870;27;20434;-55
2024/01/05 04:21:38;;;;;;;2.27;2.17;;;;;;;2.69;100.00;95335.75;5132550;27;20445;-55
2024/01/05 04:24:07;;;;;;;1.70;1.60;;;;;;;2.77;100.00;95337.28;5132705;27;20835;-54
2024/01/05 04:26:36;;;;;;;2.63;2.53;;;;;;;2.70;100.00;95341.78;5120850;27;20439;-54
2024/01/05 04:29:05;;;;;;;1.93;1.80;;;;;;;2.24;100.00;95285.56;5130749;27;20538;-54
2024/01/05 04:31:33;;;;;;;2.80;2.03;;;;;;;2.63;100.00;95359.38;5132227;27;20499;-54
2024/01/05 04:34:03;;;;;;;1.00;0.97;;;;;;;2.60;100.00;95362.44;5131641;27;20468;-55
2024/01/05 04:36:32;;;;;;;1.23;1.23;;;;;;;2.46;100.00;95361.78;5132116;27;20942;-55
2024/01/05 04:39:02;;;;;;;1.57;1.23;;;;;;;2.58;100.00;95367.91;5104674;28;20968;-56
2024/01/05 04:41:31;;;;;;;1.13;1.03;;;;;;;2.75;100.00;95378.56;5131568;28;20438;-54
2024/01/05 04:44:00;;;;;;;1.40;1.40;;;;;;;2.55;100.00;95381.41;5132421;27;20438;-55
2024/01/05 04:46:29;;;;;;;1.23;1.13;;;;;;;2.51;100.00;95377.59;5131501;27;20475;-56
2024/01/05 04:48:57;;;;;;;2.10;1.43;;;;;;;2.40;100.00;95381.75;5131899;27;20491;-56
2024/01/05 04:51:26;;;;;;;1.53;1.40;;;;;;;2.50;100.00;95384.66;5131099;27;20449;-56
2024/01/05 04:53:55;;;;;;;0.70;0.70;;;;;;;2.35;100.00;95386.81;5132033;28;20903;-56
2024/01/05 04:56:26;;;;;;;2.27;2.03;;;;;;;2.39;100.00;95382.78;5130831;28;20450;-55
2024/01/05 04:58:54;;;;;;;11.70;3.80;;;;;;;2.42;100.00;95397.22;5132494;27;20438;-55
2024/01/05 05:01:23;;;;;;;4.50;4.07;;;;;;;1.86;100.00;95335.41;5131516;27;20437;-55
2024/01/05 05:03:51;;;;;;;4.67;3.90;;;;;;;2.46;100.00;95401.81;5131653;28;20438;-55
2024/01/05 05:06:20;;;;;;;5.03;4.60;;;;;;;2.53;100.00;95388.66;5131888;28;20438;-55
2024/01/05 05:08:49;;;;;;;3.23;2.93;;;;;;;2.58;100.00;95393.25;5132419;27;20529;-56
2024/01/05 05:11:17;;;;;;;2.47;2.37;;;;;;;2.70;100.00;95400.16;5131864;28;20438;-56
2024/01/05 05:13:47;;;;;;;8.87;3.73;;;;;;;2.42;100.00;95413.72;5134534;27;20480;-56
2024/01/05 05:16:16;;;;;;;7.50;4.30;;;;;;;2.44;100.00;95416.94;5109306;27;20434;-55
2024/01/05 05:18:45;;;;;;;4.57;4.20;;;;;;;2.67;100.00;95392.75;5135277;27;20442;-55
2024/01/05 05:21:14;;;;;;;3.03;2.70;;;;;;;2.90;100.00;95413.03;5136230;27;20434;-55
2024/01/05 05:23:43;;;;;;;4.90;4.57;;;;;;;2.38;100.00;95417.78;5135216;27;20479;-55
2024/01/05 05:26:12;;;;;;;5.17;3.43;;;;;;;2.46;100.00;95407.03;5134474;27;20438;-54
2024/01/05 05:28:40;;;;;;;3.73;3.43;;;;;;;2.34;100.00;95419.22;5135349;27;20435;-53
2024/01/05 05:31:10;;;;;;;3.30;3.10;;;;;;;1.54;100.00;95372.25;5135330;27;20538;-56
2024/01/05 05:33:39;;;;;;;6.73;6.13;;;;;;;1.66;100.00;95386.22;5134907;27;20897;-56
2024/01/05 05:36:08;;;;;;;7.70;6.77;;;;;;;1.36;100.00;95438.25;5124430;27;20801;-55
2024/01/05 05:38:37;;;;;;;5.10;4.70;;;;;;;0.94;100.00;95441.44;5113596;27;20445;-56
2024/01/05 05:41:06;;;;;;;4.43;3.83;;;;;;;0.38;100.00;95415.91;5114924;28;20431;-56
2024/01/05 05:43:34;;;;;;;2.07;1.87;;;;;;;1.08;100.00;95448.22;5119591;27;20435;-56
2024/01/05 05:46:03;;;;;;;2.13;1.50;;;;;;;0.88;100.00;95456.13;5135389;27;20450;-56
2024/01/05 05:48:33;;;;;;;1.50;1.40;;;;;;;1.34;100.00;95453.34;5135396;27;20437;-56
2024/01/05 05:51:04;;;;;;;1.00;0.90;;;;;;;1.61;100.00;95459.19;5134450;27;20861;-56
2024/01/05 05:53:32;;;;;;;1.67;1.57;;;;;;;1.71;100.00;95459.53;5134992;27;21058;-56
2024/01/05 05:56:01;;;;;;;1.50;1.03;;;;;;;1.73;100.00;95460.94;5134388;27;21084;-56
2024/01/05 05:58:30;;;;;;;1.83;1.73;;;;;;;1.96;100.00;95441.28;5134885;27;20439;-55
2024/01/05 06:00:58;;;;;;;4.43;1.13;;;;;;;2.09;100.00;95449.03;5135198;27;20949;-56
2024/01/05 06:03:27;;;;;;;0.73;0.73;;;;;;;2.05;100.00;95440.78;5135212;27;21021;-56
2024/01/05 06:05:58;;;;;;;1.23;0.93;;;;;;;2.14;100.00;95457.84;5134787;27;20473;-56
2024/01/05 06:08:27;;;;;;;1.77;1.67;;;;;;;2.07;100.00;95464.13;5135461;27;20517;-56
2024/01/05 06:10:55;;;;;;;9.03;1.87;;;;;;;1.76;100.00;95405.66;5134894;27;20521;-55
2024/01/05 06:13:24;;;;;;;1.67;1.57;;;;;;;2.07;100.00;95456.28;5134497;27;20958;-55
2024/01/05 06:15:53;;;;;;;1.93;1.50;;;;;;;2.13;100.00;95471.91;5135215;27;20454;-56
2024/01/05 06:18:21;;;;;;;1.73;1.63;;;;;;;2.29;100.00;95466.16;5135055;27;20474;-55
2024/01/05 06:20:50;;;;;;;6.33;2.47;;;;;;;2.08;100.00;95466.50;5134356;27;20438;-55
2024/01/05 06:23:20;;;;;;;10.20;2.67;;;;;;;2.11;100.00;95463.47;5128984;27;20438;-55
2024/01/05 06:25:49;;;;;;;4.07;3.77;;;;;;;2.55;100.00;95465.91;5134550;27;20470;-55
2024/01/05 06:28:17;;;;;;;2.13;2.03;;;;;;;2.61;100.00;95469.47;5134447;27;20927;-56
2024/01/05 06:30:46;;;;;;;7.27;4.10;;;;;;;2.63;100.00;95469.28;5133989;27;20483;-56
2024/01/05 06:33:15;;;;;;;2.10;1.20;;;;;;;2.64;100.00;95432.41;5134600;27;20896;-56
2024/01/05 06:35:44;;;;;;;3.37;2.57;;;;;;;2.58;100.00;95471.75;5120904;27;20467;-56
2024/01/05 06:38:12;;;;;;;9.20;3.00;;;;;;;2.72;100.00;95440.00;5134906;27;20503;-56
2024/01/05 06:40:43;;;;;;;3.50;3.20;;;;;;;3.34;100.00;95469.50;5121420;27;20886;-55
2024/01/05 06:43:11;;;;;;;9.63;3.50;;;;;;;3.59;100.00;95483.28;5133889;27;20435;-55
2024/01/05 06:45:40;;;;;;;8.03;5.27;;;;;;;3.84;100.00;95478.72;5133531;27;20430;-56
2024/01/05 06:48:09;;;;;;;7.07;2.37;;;;;;;4.20;100.00;95486.44;5133238;27;20525;-56
2024/01/05 06:50:37;;;;;;;3.00;2.80;;;;;;;4.49;100.00;95492.66;5134321;27;20496;-56
2024/01/05 06:53:07;;;;;;;8.00;7.03;;;;;;;4.28;100.00;95495.81;5133904;27;20470;-56
2024/01/05 06:55:36;;;;;;;7.33;6.80;;;;;;;3.33;100.00;95463.47;5129519;27;20935;-56
2024/01/05 06:58:06;;;;;;;6.80;6.43;;;;;;;3.03;100.00;95501.88;5126501;27;20925;-56
2024/01/05 07:00:37;;;;;;;4.63;4.33;;;;;;;2.67;100.00;95452.94;5133332;27;20521;-56
2024/01/05 07:03:06;;;;;;;4.33;3.80;;;;;;;3.24;100.00;95514.53;5134056;27;20510;-56
2024/01/05 07:05:35;;;;;;;13.60;7.10;;;;;;;2.95;100.00;95516.06;5133792;27;20463;-56
2024/01/05 07:08:07;;;;;;;4.57;4.20;;;;;;;2.76;100.00;95475.16;5133679;27;20520;-56
2024/01/05 07:10:36;;;;;;;4.53;4.30;;;;;;;3.19;100.00;95519.63;5133602;27;20827;-56
2024/01/05 07:13:08;;;;;;;6.87;4.87;;;;;;;3.17;100.00;95526.91;5133843;27;20431;-56
2024/01/05 07:15:36;;;;;;;5.60;5.10;;;;;;;3.42;100.00;95539.91;5133547;27;20492;-56
2024/01/05 07:18:05;;;;;;;6.10;5.43;;;;;;;3.41;100.00;95541.75;5133736;27;20938;-57
2024/01/05 07:20:35;;;;;;;10.27;3.80;;;;;;;3.28;100.00;95533.25;5133287;27;20526;-56
2024/01/05 07:23:04;;;;;;;3.33;2.93;;;;;;;3.31;100.00;95536.25;5133336;27;20434;-56
2024/01/05 07:25:32;;;;;;;7.00;3.73;;;;;;;3.33;100.00;95530.75;5132698;27;20434;-57
2024/01/05 07:28:03;;;;;;;4.83;4.53;;;;;;;3.39;100.00;95535.91;5133620;27;20495;-57
2024/01/05 07:30:33;;;;;;;2.30;2.20;;;;;;;3.24;100.00;95547.81;5132722;27;20438;-57
2024/01/05 07:33:02;;;;;;;7.50;3.07;;;;;;;3.44;100.00;95541.31;5133310;27;20434;-57
2024/01/05 07:35:31;;;;;;;2.50;2.40;;;;;;;3.49;100.00;95553.78;5132142;27;20892;-58
2024/01/05 07:37:59;;;;;;;2.47;2.27;;;;;;;3.53;100.00;95539.19;5133329;27;21003;-57
2024/01/05 07:40:28;;;;;;;7.90;3.43;;;;;;;3.81;100.00;95558.63;5132897;27;20439;-57
2024/01/05 07:42:57;;;;;;;3.20;2.20;;;;;;;4.19;100.00;95554.88;5133208;27;20438;-57
2024/01/05 07:45:26;;;;;;;3.43;3.23;;;;;;;4.03;100.00;95565.97;5131817;27;20939;-57
2024/01/05 07:47:57;;;;;;;1.57;1.47;;;;;;;4.35;100.00;95557.66;5132367;27;20470;-57
2024/01/05 07:50:27;;;;;;;4.17;2.60;;;;;;;4.69;100.00;95563.19;5132718;27;20445;-56
2024/01/05 07:52:55;;;;;;;8.03;2.03;;;;;;;5.17;100.00;95558.53;5132347;27;20586;-57
2024/01/05 07:55:24;;;;;;;5.13;3.53;;;;;;;5.20;100.00;95563.34;5133301;27;20470;-57
2024/01/05 07:57:53;;;;;;;3.63;3.17;;;;;;;5.43;100.00;95555.44;5132747;27;20445;-56
2024/01/05 08:00:21;;;;;;;2.93;2.60;;;;;;;5.68;100.00;95561.22;5133122;27;20525;-56
2024/01/05 08:02:51;;;;;;;2.63;2.07;;;;;;;5.76;100.00;95557.44;5129080;27;20884;-56
2024/01/05 08:05:21;;;;;;;14.83;6.07;;;;;;;5.91;100.00;95568.28;5123033;27;20434;-55
2024/01/05 08:07:49;;;;;;;3.53;3.07;;;;;;;5.91;100.00;95546.44;5132870;27;20449;-56
2024/01/05 08:10:18;;;;;;;3.57;3.27;;;;;;;6.15;100.00;95575.03;5132779;27;20513;-54
2024/01/05 08:12:47;;;;;;;4.80;2.40;;;;;;;6.24;100.00;95568.38;5132182;27;20463;-54
2024/01/05 08:15:16;;;;;;;3.80;3.10;;;;;;;5.78;100.00;95569.31;5132834;27;20473;-54
2024/01/05 08:17:44;;;;;;;3.57;3.37;;;;;;;5.21;100.00;95578.09;5132707;27;20446;-55
2024/01/05 08:20:13;;;;;;;6.10;3.97;;;;;;;5.30;100.00;95583.78;5132687;27;20489;-55
2024/01/05 08:22:43;;;;;;;3.07;2.87;;;;;;;5.61;100.00;95580.78;5131963;27;20818;-55
2024/01/05 08:25:14;;;;;;;11.93;4.17;;;;;;;5.65;100.00;95571.41;5132205;27;20446;-55
2024/01/05 08:27:44;;;;;;;9.40;3.20;;;;;;;5.58;100.00;95581.25;5132628;27;20434;-56
2024/01/05 08:30:13;;;;;;;10.87;1.47;;;;;;;5.90;100.00;95574.56;5132014;27;20434;-55
2024/01/05 08:32:43;;;;;;;3.07;2.97;;;;;;;5.92;100.00;95569.09;5132707;27;20446;-55
2024/01/05 08:35:11;;;;;;;2.70;2.00;;;;;;;6.13;100.00;95571.06;5132096;27;21414;-55
2024/01/05 08:37:40;;;;;;;1.43;1.30;;;;;;;6.08;100.00;95574.41;5132330;27;20435;-55
2024/01/05 08:40:12;;;;;;;8.50;1.63;;;;;;;6.12;100.00;95570.25;5132495;27;20881;-54
2024/01/05 08:42:41;;;;;;;4.07;3.77;;;;;;;6.16;100.00;95576.66;5131675;28;20456;-54
2024/01/05 08:45:10;;;;;;;3.43;3.33;;;;;;;6.27;100.00;95581.06;5131848;28;20454;-57
2024/01/05 08:47:39;;;;;;;6.53;3.10;;;;;;;6.80;100.00;95572.78;5131914;27;20430;-54
2024/01/05 08:50:08;;;;;;;2.17;2.07;;;;;;;7.25;100.00;95556.84;5135662;27;20822;-55
2024/01/05 08:52:37;;;;;;;2.67;2.43;;;;;;;7.62;100.00;95565.78;5135857;27;21062;-55
2024/01/05 08:55:07;;;;;;;2.10;1.90;;;;;;;8.41;90.75;95557.47;5136351;27;20474;-55
2024/01/05 08:57:37;;;;;;;3.70;3.40;;;;;;;8.67;93.03;95556.69;5135846;27;20965;-55
2024/01/05 09:00:09;;;;;;;8.83;3.63;;;;;;;8.64;90.27;95525.47;5135976;27;20430;-55
2024/01/05 09:02:39;;;;;;;6.17;3.30;;;;;;;9.17;98.89;95564.22;5134076;27;20460;-55
2024/01/05 09:05:09;;;;;;;10.93;5.43;;;;;;;9.54;96.07;95546.44;5135704;27;20430;-57
2024/01/05 09:07:37;;;;;;;8.90;6.50;;;;;;;10.15;93.74;95543.03;5135366;27;20441;-57
2024/01/05 09:10:08;;;;;;;6.87;6.27;;;;;;;10.49;86.92;95548.69;5135829;27;20442;-56
2024/01/05 09:12:39;;;;;;;11.50;4.07;;;;;;;10.10;80.75;95473.34;5135663;27;20435;-56
2024/01/05 09:15:09;;;;;;;5.30;5.00;;;;;;;11.06;78.76;95542.34;5136027;27;20505;-55
2024/01/05 09:17:37;;;;;;;7.73;4.13;;;;;;;11.12;74.75;95528.03;5135477;27;20438;-56
2024/01/05 09:20:08;;;;;;;13.83;5.10;;;;;;;10.18;75.28;95529.28;5136084;27;20506;-56
2024/01/05 09:22:37;;;;;;;7.77;4.40;;;;;;;9.83;75.76;95529.13;5121958;27;20509;-55
2024/01/05 09:25:07;;;;;;;5.57;4.97;;;;;;;8.91;76.79;95550.81;5136197;27;20451;-55
2024/01/05 09:27:38;;;;;;;4.57;3.97;;;;;;;8.53;78.26;95552.84;5135723;27;20437;-55
2024/01/05 09:30:08;;;;;;;8.23;4.70;;;;;;;8.19;80.78;95553.03;5135446;27;20438;-55
2024/01/05 09:32:37;;;;;;;2.93;2.73;;;;;;;8.04;83.83;95557.34;5135616;27;20460;-55
2024/01/05 09:35:08;;;;;;;5.50;3.27;;;;;;;7.91;82.92;95481.97;5135229;27;20492;-54
2024/01/05 09:37:37;;;;;;;0.57;0.57;;;;;;;8.90;79.51;95551.84;5134800;27;21020;-55
2024/01/05 09:40:10;;;;;;;2.30;2.10;;;;;;;8.64;79.45;95547.41;5134788;27;20450;-56
2024/01/05 09:42:41;;;;;;;1.40;1.30;;;;;;;9.09;79.62;95546.16;5135709;27;20484;-55
2024/01/05 09:45:12;;;;;;;7.90;2.67;;;;;;;8.84;78.35;95496.56;5134902;27;20426;-55
2024/01/05 09:47:42;;;;;;;1.37;1.27;;;;;;;9.64;79.75;95548.38;5135054;27;20515;-60
2024/01/05 09:50:13;;;;;;;10.53;1.33;;;;;;;10.02;75.99;95538.19;5134920;27;20438;-54
2024/01/05 09:52:43;;;;;;;0.97;0.97;;;;;;;9.80;74.54;95545.53;5135057;27;20474;-54
2024/01/05 09:55:12;;;;;;;1.10;1.10;;;;;;;9.67;75.37;95548.63;5134985;27;20474;-54
2024/01/05 09:57:43;;;;;;;5.20;0.80;;;;;;;9.66;75.85;95530.38;5134525;27;20478;-54
2024/01/05 10:00:16;;;;;;;0.80;0.80;;;;;;;9.81;76.28;95535.75;5134596;27;20919;-56
2024/01/05 10:02:56;;;;;;;3.27;1.47;;;;;;;9.91;78.31;95533.94;5135040;27;20546;-57
2024/01/05 10:05:25;;;;;;;1.60;1.50;;;;;;;10.55;75.86;95517.69;5134308;27;20533;-56
2024/01/05 10:07:54;;;;;;;1.30;1.20;;;;;;;11.51;73.85;95512.31;5135059;27;20435;-56
2024/01/05 10:10:45;;;;;;;3.93;1.07;;;;;;;11.84;70.29;95520.44;5134775;27;20443;-55
2024/01/05 10:13:16;;;;;;;1.47;1.37;;;;;;;11.88;68.40;95443.69;5135334;27;20438;-56
2024/01/05 10:15:55;;;;;;;0.70;0.70;;;;;;;11.72;67.04;95519.16;5134071;27;20467;-57
2024/01/05 10:18:24;;;;;;;1.00;0.77;;;;;;;11.10;72.27;95498.31;5134554;27;20453;-58
2024/01/05 10:20:55;;;;;;;1.20;1.10;;;;;;;11.33;72.34;95503.84;5134718;27;20477;-58
2024/01/05 10:23:24;;;;;;;0.70;0.70;;;;;;;12.28;70.13;95504.56;5134224;27;20438;-56
2024/01/05 10:25:52;;;;;;;1.60;0.93;;;;;;;12.10;69.80;95505.97;5133968;27;20433;-55
2024/01/05 10:28:24;;;;;;;0.73;0.73;;;;;;;12.33;68.50;95557.69;5134510;27;20461;-55
2024/01/05 10:30:53;;;;;;;1.23;0.70;;;;;;;12.64;67.88;95491.81;5134248;27;20450;-56
2024/01/05 10:33:22;;;;;;;0.67;0.50;;;;;;;13.11;67.04;95499.16;5134501;27;20462;-56
2024/01/05 10:35:51;;;;;;;0.67;0.67;;;;;;;13.25;67.88;95479.63;5126839;27;20471;-55
2024/01/05 10:38:20;;;;;;;1.63;1.53;;;;;;;13.26;66.34;95475.88;5128939;27;20438;-54
2024/01/05 10:40:49;;;;;;;2.07;1.97;;;;;;;13.62;67.38;95465.63;5134220;27;20922;-55
2024/01/05 10:43:20;;;;;;;2.87;2.67;;;;;;;14.56;65.96;95464.66;5133736;27;20449;-53
2024/01/05 10:45:50;;;;;;;1.97;1.87;;;;;;;15.01;61.70;95463.13;5134361;27;20434;-57
2024/01/05 10:48:22;;;;;;;1.90;1.80;;;;;;;15.14;60.08;95449.03;5133880;27;20529;-58
2024/01/05 10:50:52;;;;;;;2.50;2.30;;;;;;;15.10;59.25;95461.34;5134309;27;20438;-57
2024/01/05 10:53:21;;;;;;;9.23;2.33;;;;;;;14.44;60.53;95458.19;5133817;27;20466;-57
2024/01/05 10:55:50;;;;;;;1.40;1.30;;;;;;;14.56;61.23;95458.53;5133939;27;20492;-58
2024/01/05 10:58:18;;;;;;;1.40;1.30;;;;;;;14.42;61.57;95455.03;5133520;27;20895;-57
2024/01/05 11:00:50;;;;;;;2.93;1.33;;;;;;;14.24;61.69;95450.47;5133754;27;20442;-56
2024/01/05 11:03:20;;;;;;;2.23;1.90;;;;;;;14.10;62.56;95457.56;5107380;27;20969;-55
2024/01/05 11:05:49;;;;;;;1.87;1.77;;;;;;;14.26;62.04;95450.97;5133693;27;20803;-56
2024/01/05 11:08:30;;;;;;;0.83;0.80;;;;;;;13.92;62.36;95443.16;5133351;27;20442;-55
2024/01/05 11:11:11;;;;;;;0.70;0.60;;;;;;;14.55;60.19;95438.25;5131072;27;20443;-56
2024/01/05 11:14:06;;;;;;;1.00;0.77;;;;;;;14.35;61.87;95450.03;5132599;27;20442;-56
2024/01/05 11:17:07;;;;;;;1.90;1.30;;;;;;;13.42;64.00;95457.88;5119668;27;20486;-56
2024/01/05 11:19:57;;;;;;;2.20;1.73;;;;;;;12.87;65.59;95434.47;5105810;27;20448;-56
2024/01/05 11:22:30;;;;;;;1.03;0.97;;;;;;;12.64;67.17;95455.41;5132841;27;20440;-56
2024/01/05 11:25:00;;;;;;;0.90;0.90;;;;;;;13.32;66.38;95452.66;5133319;27;20439;-56
2024/01/05 11:27:31;;;;;;;1.73;1.63;;;;;;;13.45;64.66;95454.66;5132954;27;20438;-56
2024/01/05 11:30:00;;;;;;;0.77;0.70;;;;;;;12.88;66.09;95430.72;5133142;27;20447;-57
2024/01/05 11:32:39;;;;;;;2.13;1.60;;;;;;;12.86;67.53;95470.09;5133276;27;20462;-57
2024/01/05 11:35:42;;;;;;;1.50;1.50;;;;;;;12.99;68.15;95445.50;5132094;27;20998;-56
2024/01/05 11:38:29;;;;;;;1.03;0.93;;;;;;;12.39;67.46;95316.59;5133167;27;20451;-58
2024/01/05 11:40:58;;;;;;;0.60;0.60;;;;;;;13.57;67.13;95439.06;5110737;27;20445;-57
2024/01/05 11:43:33;;;;;;;1.03;1.00;;;;;;;13.28;67.64;95436.44;5132586;27;20862;-57
2024/01/05 11:46:03;;;;;;;0.53;0.53;;;;;;;13.29;66.98;95427.41;5133121;27;20515;-57